createdAt,value
2024-03-12T00:00:12.253Z,8.75
2024-03-12T00:02:38.850Z,9.03
2024-03-12T00:05:05.541Z,8.33
2024-03-12T00:07:32.165Z,8.37
2024-03-12T00:09:58.803Z,8.41
2024-03-12T00:12:25.333Z,8.79
2024-03-12T00:14:51.841Z,9.05
2024-03-12T00:17:18.234Z,9.36
2024-03-12T00:19:44.663Z,9.42
2024-03-12T00:22:11.081Z,9.79
2024-03-12T00:24:37.569Z,9.91
2024-03-12T00:27:04.145Z,9.57
2024-03-12T00:29:30.553Z,9.47
2024-03-12T00:31:56.982Z,9.59
2024-03-12T00:34:23.408Z,9.73
2024-03-12T00:36:49.882Z,9.82
2024-03-12T00:39:16.337Z,9.95
2024-03-12T00:41:42.779Z,9.94
2024-03-12T00:44:09.209Z,9.27
2024-03-12T00:46:35.677Z,9.43
2024-03-12T00:49:02.225Z,9.69
2024-03-12T00:51:28.693Z,9.56
2024-03-12T00:53:55.108Z,9.75
2024-03-12T00:56:21.560Z,9.85
2024-03-12T00:58:47.962Z,9.77
2024-03-12T01:01:14.469Z,9.65
2024-03-12T01:03:40.985Z,9.38
2024-03-12T01:06:07.465Z,9.41
2024-03-12T01:08:33.916Z,9.46
2024-03-12T01:11:00.523Z,9.20
2024-03-12T01:13:27.193Z,9.10
2024-03-12T01:15:53.817Z,9.26
2024-03-12T01:18:20.529Z,9.27
2024-03-12T01:20:47.092Z,9.38
2024-03-12T01:23:14.949Z,9.29
2024-03-12T01:25:50.012Z,9.38
2024-03-12T01:28:18.209Z,9.39
2024-03-12T01:30:44.908Z,9.20
2024-03-12T01:33:11.636Z,9.06
2024-03-12T01:35:38.271Z,9.18
2024-03-12T01:38:04.835Z,9.00
2024-03-12T01:40:31.891Z,9.07
2024-03-12T01:42:58.826Z,9.21
2024-03-12T01:45:25.577Z,9.17
2024-03-12T01:47:52.343Z,9.19
2024-03-12T01:50:18.932Z,9.11
2024-03-12T01:52:45.550Z,9.16
2024-03-12T01:55:12.142Z,9.30
2024-03-12T01:57:38.782Z,9.10
2024-03-12T02:00:05.393Z,9.09
2024-03-12T02:02:31.957Z,9.15
2024-03-12T02:04:58.529Z,9.21
2024-03-12T02:07:25.106Z,9.08
2024-03-12T02:09:51.735Z,9.41
2024-03-12T02:12:18.321Z,9.17
2024-03-12T02:14:44.893Z,9.11
2024-03-12T02:17:11.460Z,8.91
2024-03-12T02:19:38.097Z,8.79
2024-03-12T02:22:04.780Z,8.45
2024-03-12T02:24:31.483Z,8.77
2024-03-12T02:26:58.141Z,8.82
2024-03-12T02:29:24.726Z,9.08
2024-03-12T02:31:51.284Z,9.18
2024-03-12T02:34:17.861Z,9.25
2024-03-12T02:36:44.434Z,9.20
2024-03-12T02:39:12.265Z,9.43
2024-03-12T02:41:38.838Z,9.42
2024-03-12T02:44:05.676Z,9.47
2024-03-12T02:46:32.267Z,9.45
2024-03-12T02:48:58.966Z,9.39
2024-03-12T02:51:25.660Z,9.56
2024-03-12T02:53:52.233Z,9.16
2024-03-12T02:56:18.882Z,9.11
2024-03-12T02:58:45.492Z,9.16
2024-03-12T03:01:12.179Z,9.06
2024-03-12T03:03:38.697Z,8.84
2024-03-12T03:06:05.164Z,8.33
2024-03-12T03:08:31.570Z,8.83
2024-03-12T03:10:58.067Z,8.91
2024-03-12T03:13:24.625Z,9.09
2024-03-12T03:15:51.210Z,8.20
2024-03-12T03:18:17.682Z,8.52
2024-03-12T03:20:44.183Z,8.32
2024-03-12T03:23:10.663Z,8.36
2024-03-12T03:25:37.099Z,8.36
2024-03-12T03:28:03.619Z,8.56
2024-03-12T03:30:30.167Z,8.77
2024-03-12T03:32:56.625Z,8.95
2024-03-12T03:35:23.073Z,8.41
2024-03-12T03:37:49.700Z,8.72
2024-03-12T03:40:16.172Z,8.82
2024-03-12T03:42:42.648Z,8.84
2024-03-12T03:45:09.178Z,8.75
2024-03-12T03:47:35.704Z,9.02
2024-03-12T03:50:02.271Z,9.22
2024-03-12T03:52:28.728Z,8.43
2024-03-12T03:54:55.188Z,8.20
2024-03-12T03:57:21.661Z,8.70
2024-03-12T03:59:48.057Z,8.90
2024-03-12T04:02:14.687Z,9.05
2024-03-12T04:04:41.350Z,9.28
2024-03-12T04:07:08.027Z,9.38
2024-03-12T04:09:34.672Z,9.46
2024-03-12T04:12:01.113Z,9.49
2024-03-12T04:14:27.542Z,9.21
2024-03-12T04:16:53.960Z,9.08
2024-03-12T04:19:20.538Z,8.63
2024-03-12T04:21:47.111Z,9.12
2024-03-12T04:24:13.538Z,9.09
2024-03-12T04:26:39.972Z,9.32
2024-03-12T04:29:06.501Z,8.40
2024-03-12T04:31:32.950Z,8.94
2024-03-12T04:33:59.484Z,9.10
2024-03-12T04:36:26.138Z,9.09
2024-03-12T04:38:52.671Z,8.82
2024-03-12T04:41:19.232Z,9.01
2024-03-12T04:43:45.743Z,9.10
2024-03-12T04:46:12.345Z,9.29
2024-03-12T04:48:38.824Z,9.27
2024-03-12T04:51:05.293Z,9.33
2024-03-12T04:53:31.717Z,9.30
2024-03-12T04:55:58.187Z,9.28
2024-03-12T04:58:24.605Z,9.24
2024-03-12T05:00:51.100Z,9.08
2024-03-12T05:03:17.708Z,9.10
2024-03-12T05:05:44.173Z,9.11
2024-03-12T05:08:10.640Z,9.11
2024-03-12T05:10:37.524Z,9.27
2024-03-12T05:13:04.448Z,9.35
2024-03-12T05:15:31.257Z,9.42
2024-03-12T05:17:57.922Z,9.48
2024-03-12T05:20:24.951Z,9.69
2024-03-12T05:22:51.770Z,9.63
2024-03-12T05:25:18.451Z,9.64
2024-03-12T05:27:45.096Z,8.38
2024-03-12T05:30:11.693Z,8.73
2024-03-12T05:32:38.313Z,8.79
2024-03-12T05:35:04.982Z,8.83
2024-03-12T05:37:31.716Z,8.91
2024-03-12T05:39:58.372Z,8.93
2024-03-12T05:42:25.017Z,8.92
2024-03-12T05:44:51.650Z,9.20
2024-03-12T05:47:18.227Z,9.02
2024-03-12T05:49:44.894Z,8.86
2024-03-12T05:52:11.585Z,9.02
2024-03-12T05:54:38.175Z,8.97
2024-03-12T05:57:04.746Z,9.14
2024-03-12T05:59:31.487Z,9.12
2024-03-12T06:01:58.112Z,9.40
2024-03-12T06:04:24.911Z,9.40
2024-03-12T06:06:51.668Z,8.89
2024-03-12T06:09:18.284Z,8.88
2024-03-12T06:11:44.995Z,9.03
2024-03-12T06:14:11.687Z,8.99
2024-03-12T06:16:38.282Z,9.16
2024-03-12T06:19:04.881Z,9.14
2024-03-12T06:21:31.548Z,9.25
2024-03-12T06:23:58.137Z,9.16
2024-03-12T06:26:25.157Z,9.06
2024-03-12T06:28:52.291Z,9.30
2024-03-12T06:31:18.968Z,9.29
2024-03-12T06:33:45.626Z,9.33
2024-03-12T06:36:12.250Z,9.35
2024-03-12T06:38:38.891Z,9.44
2024-03-12T06:41:05.488Z,9.41
2024-03-12T06:43:32.094Z,9.00
2024-03-12T06:45:58.707Z,9.22
2024-03-12T06:48:25.312Z,9.32
2024-03-12T06:50:51.930Z,9.32
2024-03-12T06:53:18.552Z,9.32
2024-03-12T06:55:45.149Z,9.40
2024-03-12T06:58:11.793Z,9.34
2024-03-12T07:00:38.975Z,9.15
2024-03-12T07:03:05.970Z,9.27
2024-03-12T07:05:32.698Z,9.04
2024-03-12T07:07:59.280Z,8.89
2024-03-12T07:10:25.929Z,8.69
2024-03-12T07:12:52.566Z,8.30
2024-03-12T07:15:19.242Z,8.67
2024-03-12T07:17:45.823Z,8.87
2024-03-12T07:20:12.431Z,9.08
2024-03-12T07:22:41.135Z,9.27
2024-03-12T07:25:09.103Z,9.41
2024-03-12T07:27:35.896Z,9.59
2024-03-12T07:30:02.567Z,9.57
2024-03-12T07:32:29.286Z,9.62
2024-03-12T07:34:55.969Z,9.83
2024-03-12T07:37:22.740Z,10.16
2024-03-12T07:39:49.492Z,9.88
2024-03-12T07:42:16.221Z,10.02
2024-03-12T07:44:43.007Z,10.13
2024-03-12T07:47:09.635Z,10.04
2024-03-12T07:49:36.402Z,10.07
2024-03-12T07:52:03.237Z,9.67
2024-03-12T07:54:29.961Z,9.85
2024-03-12T07:56:56.583Z,9.96
2024-03-12T07:59:25.305Z,10.26
2024-03-12T08:01:52.001Z,10.29
2024-03-12T08:04:18.751Z,10.24
2024-03-12T08:06:45.451Z,10.89
2024-03-12T08:09:12.129Z,10.69
2024-03-12T08:11:38.958Z,10.59
2024-03-12T08:14:05.798Z,10.68
2024-03-12T08:16:32.422Z,11.01
2024-03-12T08:18:59.067Z,11.10
2024-03-12T08:21:25.695Z,11.15
2024-03-12T08:23:52.497Z,11.51
2024-03-12T08:26:19.076Z,11.63
2024-03-12T08:28:45.784Z,11.14
2024-03-12T08:31:19.166Z,11.46
2024-03-12T08:33:54.905Z,11.57
2024-03-12T08:36:22.361Z,11.26
2024-03-12T08:38:49.190Z,11.29
2024-03-12T08:41:15.797Z,10.84
2024-03-12T08:43:42.559Z,10.73
2024-03-12T08:46:09.602Z,10.99
2024-03-12T08:48:36.447Z,10.87
2024-03-12T08:51:03.107Z,11.14
2024-03-12T08:53:29.723Z,11.47
2024-03-12T08:55:56.423Z,11.50
2024-03-12T08:58:29.241Z,10.92
2024-03-12T09:00:56.087Z,11.21
2024-03-12T09:03:22.779Z,11.38
2024-03-12T09:05:49.500Z,12.02
2024-03-12T09:08:16.219Z,11.67
2024-03-12T09:10:43.057Z,11.85
2024-03-12T09:13:09.713Z,11.34
2024-03-12T09:15:36.710Z,11.29
2024-03-12T09:18:03.337Z,10.69
2024-03-12T09:20:30.017Z,11.69
2024-03-12T09:22:56.613Z,11.56
2024-03-12T09:25:23.676Z,11.41
2024-03-12T09:27:50.326Z,11.42
2024-03-12T09:30:17.021Z,11.35
2024-03-12T09:32:43.525Z,11.42
2024-03-12T09:35:10.116Z,11.22
2024-03-12T09:37:37.032Z,11.18
2024-03-12T09:40:03.820Z,11.38
2024-03-12T09:42:30.395Z,10.75
2024-03-12T09:44:56.806Z,10.24
2024-03-12T09:47:23.276Z,10.73
2024-03-12T09:49:49.907Z,10.38
2024-03-12T09:52:16.480Z,10.66
2024-03-12T09:54:42.951Z,11.32
2024-03-12T09:57:09.407Z,11.12
2024-03-12T09:59:36.158Z,11.23
2024-03-12T10:02:04.852Z,11.23
2024-03-12T10:04:33.109Z,11.64
2024-03-12T10:06:59.563Z,10.99
2024-03-12T10:09:26.183Z,10.87
2024-03-12T10:11:52.673Z,10.46
2024-03-12T10:14:19.191Z,10.49
2024-03-12T10:16:45.630Z,11.03
2024-03-12T10:19:12.262Z,11.13
2024-03-12T10:21:38.887Z,10.98
2024-03-12T10:24:05.384Z,11.73
2024-03-12T10:26:31.946Z,11.12
2024-03-12T10:28:58.457Z,12.27
2024-03-12T10:31:25.227Z,13.20
2024-03-12T10:33:52.578Z,14.48
2024-03-12T10:36:19.598Z,14.69
2024-03-12T10:38:46.267Z,14.43
2024-03-12T10:41:12.879Z,14.83
2024-03-12T10:43:39.714Z,15.43
2024-03-12T10:46:06.632Z,13.94
2024-03-12T10:48:33.500Z,13.57
2024-03-12T10:51:00.156Z,14.51
2024-03-12T10:53:28.978Z,14.28
2024-03-12T10:55:57.117Z,14.68
2024-03-12T10:58:23.923Z,14.38
2024-03-12T11:00:50.656Z,14.85
2024-03-12T11:03:17.657Z,15.01
2024-03-12T11:05:44.511Z,14.83
2024-03-12T11:08:11.139Z,14.43
2024-03-12T11:10:37.951Z,13.93
2024-03-12T11:13:04.638Z,13.26
2024-03-12T11:15:31.186Z,13.78
2024-03-12T11:17:57.737Z,13.57
2024-03-12T11:20:27.855Z,13.28
2024-03-12T11:22:55.172Z,13.44
2024-03-12T11:25:21.692Z,13.21
2024-03-12T11:27:51.334Z,13.26
2024-03-12T11:30:17.867Z,12.97
2024-03-12T11:32:44.419Z,12.64
2024-03-12T11:35:10.859Z,12.22
2024-03-12T11:37:37.271Z,12.04
2024-03-12T11:40:03.797Z,12.20
2024-03-12T11:42:30.322Z,12.71
2024-03-12T11:44:56.954Z,12.95
2024-03-12T11:47:23.442Z,13.13
2024-03-12T11:49:49.889Z,13.00
2024-03-12T11:52:16.433Z,12.77
2024-03-12T11:54:43.107Z,12.38
2024-03-12T11:57:09.629Z,12.23
2024-03-12T11:59:36.192Z,12.42
2024-03-12T12:02:04.597Z,12.25
2024-03-12T12:04:31.328Z,12.31
2024-03-12T12:06:58.083Z,11.79
2024-03-12T12:09:24.650Z,11.65
2024-03-12T12:11:51.257Z,11.50
2024-03-12T12:14:17.973Z,11.55
2024-03-12T12:16:44.493Z,11.67
2024-03-12T12:19:16.325Z,12.00
2024-03-12T12:21:48.322Z,12.19
2024-03-12T12:24:15.031Z,12.34
2024-03-12T12:26:41.732Z,12.21
2024-03-12T12:29:08.153Z,12.37
2024-03-12T12:31:34.674Z,12.39
2024-03-12T12:34:01.119Z,12.46
2024-03-12T12:36:27.645Z,12.78
2024-03-12T12:38:59.051Z,12.71
2024-03-12T12:41:29.827Z,13.15
2024-03-12T12:43:56.333Z,12.65
2024-03-12T12:46:22.831Z,12.68
2024-03-12T12:48:49.414Z,12.49
2024-03-12T12:51:15.899Z,12.67
2024-03-12T12:53:42.480Z,12.43
2024-03-12T12:56:08.940Z,12.80
2024-03-12T12:58:35.703Z,12.84
2024-03-12T13:01:02.597Z,12.97
2024-03-12T13:03:29.132Z,13.02
2024-03-12T13:05:55.663Z,13.18
2024-03-12T13:08:22.126Z,13.23
2024-03-12T13:10:48.612Z,12.68
2024-03-12T13:13:15.143Z,12.40
2024-03-12T13:15:41.903Z,12.47
2024-03-12T13:18:08.662Z,12.39
2024-03-12T13:20:35.416Z,12.25
2024-03-12T13:23:01.940Z,12.79
2024-03-12T13:25:28.440Z,12.77
2024-03-12T13:27:55.138Z,12.37
2024-03-12T13:30:21.611Z,12.47
2024-03-12T13:32:48.067Z,12.02
2024-03-12T13:35:14.595Z,12.31
2024-03-12T13:37:41.079Z,12.59
2024-03-12T13:40:09.541Z,12.62
2024-03-12T13:42:36.290Z,12.66
2024-03-12T13:45:02.875Z,12.22
2024-03-12T13:47:29.307Z,11.98
2024-03-12T13:49:56.192Z,12.36
2024-03-12T13:52:22.899Z,11.95
2024-03-12T13:54:49.700Z,12.25
2024-03-12T13:57:16.143Z,12.64
2024-03-12T13:59:42.699Z,12.31
2024-03-12T14:02:09.328Z,12.33
2024-03-12T14:04:35.921Z,12.47
2024-03-12T14:07:02.470Z,12.36
2024-03-12T14:09:28.980Z,12.25
2024-03-12T14:11:55.422Z,12.24
2024-03-12T14:14:21.960Z,12.54
2024-03-12T14:16:48.476Z,12.38
2024-03-12T14:19:15.058Z,12.35
2024-03-12T14:21:41.715Z,12.46
2024-03-12T14:24:08.370Z,12.55
2024-03-12T14:26:34.959Z,12.61
2024-03-12T14:29:01.649Z,12.53
2024-03-12T14:31:28.345Z,12.48
2024-03-12T14:33:55.195Z,12.75
2024-03-12T14:36:21.954Z,12.92
2024-03-12T14:38:51.869Z,12.41
2024-03-12T14:41:23.093Z,12.50
2024-03-12T14:43:49.693Z,12.31
2024-03-12T14:46:16.308Z,11.34
2024-03-12T14:48:43.218Z,11.39
2024-03-12T14:51:09.943Z,12.20
2024-03-12T14:53:36.593Z,11.95
2024-03-12T14:56:03.198Z,11.99
2024-03-12T14:58:29.733Z,12.18
2024-03-12T15:00:56.271Z,12.43
2024-03-12T15:03:22.732Z,12.81
2024-03-12T15:05:49.201Z,12.60
2024-03-12T15:08:15.644Z,13.04
2024-03-12T15:10:42.176Z,13.15
2024-03-12T15:13:08.743Z,12.57
2024-03-12T15:15:35.250Z,12.20
2024-03-12T15:18:01.909Z,12.08
2024-03-12T15:20:28.544Z,12.02
2024-03-12T15:22:54.954Z,12.18
2024-03-12T15:25:21.432Z,12.40
2024-03-12T15:27:47.981Z,12.51
2024-03-12T15:30:14.445Z,12.59
2024-03-12T15:32:41.003Z,12.62
2024-03-12T15:35:07.728Z,12.65
2024-03-12T15:37:34.285Z,12.45
2024-03-12T15:40:00.863Z,12.05
2024-03-12T15:42:27.571Z,11.91
2024-03-12T15:44:54.153Z,12.24
2024-03-12T15:47:20.606Z,12.15
2024-03-12T15:49:47.078Z,12.40
2024-03-12T15:52:13.764Z,12.65
2024-03-12T15:54:42.564Z,12.16
2024-03-12T15:57:09.831Z,12.38
2024-03-12T15:59:36.640Z,12.39
2024-03-12T16:02:03.512Z,12.24
2024-03-12T16:04:30.246Z,12.60
2024-03-12T16:06:56.878Z,12.87
2024-03-12T16:09:23.659Z,12.97
2024-03-12T16:11:50.334Z,12.98
2024-03-12T16:14:16.936Z,12.83
2024-03-12T16:16:43.542Z,12.82
2024-03-12T16:19:10.346Z,12.39
2024-03-12T16:21:36.959Z,12.57
2024-03-12T16:24:03.688Z,12.15
2024-03-12T16:26:30.323Z,12.37
2024-03-12T16:28:57.039Z,12.15
2024-03-12T16:31:23.671Z,12.48
2024-03-12T16:33:50.315Z,12.45
2024-03-12T16:36:16.929Z,12.45
2024-03-12T16:38:43.577Z,12.31
2024-03-12T16:41:10.209Z,12.19
2024-03-12T16:43:37.025Z,11.85
2024-03-12T16:46:03.692Z,11.84
2024-03-12T16:48:33.590Z,11.91
2024-03-12T16:51:02.009Z,12.09
2024-03-12T16:53:28.656Z,12.36
2024-03-12T16:55:55.466Z,12.28
2024-03-12T16:58:22.107Z,12.03
2024-03-12T17:00:48.938Z,12.08
2024-03-12T17:03:15.552Z,12.27
2024-03-12T17:05:42.255Z,12.40
2024-03-12T17:08:08.937Z,12.27
2024-03-12T17:10:35.624Z,12.20
2024-03-12T17:13:02.256Z,12.22
2024-03-12T17:15:28.862Z,12.29
2024-03-12T17:17:55.675Z,12.25
2024-03-12T17:20:22.855Z,12.14
2024-03-12T17:22:52.076Z,12.10
2024-03-12T17:25:18.784Z,11.85
2024-03-12T17:27:45.565Z,11.84
2024-03-12T17:30:12.469Z,11.98
2024-03-12T17:32:39.188Z,11.92
2024-03-12T17:35:05.781Z,11.68
2024-03-12T17:37:32.479Z,11.50
2024-03-12T17:39:59.014Z,11.50
2024-03-12T17:42:28.589Z,11.84
2024-03-12T17:44:55.081Z,12.17
2024-03-12T17:47:21.534Z,12.14
2024-03-12T17:49:47.970Z,12.20
2024-03-12T17:52:14.461Z,12.27
2024-03-12T17:54:40.969Z,11.83
2024-03-12T17:57:07.424Z,11.99
2024-03-12T17:59:33.826Z,12.10
2024-03-12T18:02:00.440Z,12.20
2024-03-12T18:04:27.035Z,12.14
2024-03-12T18:06:53.488Z,12.02
2024-03-12T18:09:20.607Z,11.79
2024-03-12T18:11:50.560Z,11.51
2024-03-12T18:14:17.100Z,11.65
2024-03-12T18:16:43.603Z,11.69
2024-03-12T18:19:10.391Z,11.49
2024-03-12T18:21:36.935Z,11.47
2024-03-12T18:24:03.448Z,11.89
2024-03-12T18:26:29.909Z,12.01
2024-03-12T18:28:56.336Z,11.98
2024-03-12T18:31:22.979Z,12.05
2024-03-12T18:33:49.548Z,12.16
2024-03-12T18:36:16.062Z,11.56
2024-03-12T18:38:42.701Z,11.71
2024-03-12T18:41:09.369Z,11.37
2024-03-12T18:43:36.055Z,11.23
2024-03-12T18:46:02.762Z,10.85
2024-03-12T18:48:29.399Z,11.14
2024-03-12T18:50:56.056Z,10.24
2024-03-12T18:53:22.674Z,10.99
2024-03-12T18:55:49.308Z,11.25
2024-03-12T18:58:16.112Z,11.32
2024-03-12T19:00:42.908Z,11.41
2024-03-12T19:03:09.588Z,11.66
2024-03-12T19:05:36.258Z,11.60
2024-03-12T19:08:02.933Z,11.64
2024-03-12T19:10:29.677Z,11.57
2024-03-12T19:12:56.608Z,11.57
2024-03-12T19:15:23.323Z,11.57
2024-03-12T19:17:50.076Z,11.59
2024-03-12T19:20:16.801Z,11.41
2024-03-12T19:22:43.408Z,11.48
2024-03-12T19:25:10.043Z,11.22
2024-03-12T19:27:36.772Z,11.12
2024-03-12T19:30:03.486Z,11.27
2024-03-12T19:32:30.136Z,11.46
2024-03-12T19:34:56.762Z,10.94
2024-03-12T19:37:23.205Z,10.95
2024-03-12T19:39:50.406Z,11.11
2024-03-12T19:42:17.030Z,11.23
2024-03-12T19:44:43.571Z,11.36
2024-03-12T19:47:10.060Z,10.96
2024-03-12T19:49:36.559Z,10.98
2024-03-12T19:52:03.044Z,11.13
2024-03-12T19:54:29.474Z,11.15
2024-03-12T19:56:55.970Z,11.39
2024-03-12T19:59:22.451Z,11.45
2024-03-12T20:01:49.018Z,11.02
2024-03-12T20:04:15.619Z,11.28
2024-03-12T20:06:43.426Z,11.14
2024-03-12T20:09:11.315Z,11.14
2024-03-12T20:11:37.867Z,11.04
2024-03-12T20:14:04.386Z,11.03
2024-03-12T20:16:30.937Z,11.27
2024-03-12T20:18:57.443Z,11.38
2024-03-12T20:21:23.921Z,11.60
2024-03-12T20:23:50.351Z,11.61
2024-03-12T20:26:16.806Z,11.72
2024-03-12T20:28:43.224Z,11.90
2024-03-12T20:31:09.725Z,11.86
2024-03-12T20:33:36.383Z,11.68
2024-03-12T20:36:02.952Z,11.51
2024-03-12T20:38:29.578Z,10.97
2024-03-12T20:40:56.265Z,11.23
2024-03-12T20:43:22.969Z,11.44
2024-03-12T20:45:49.717Z,11.36
2024-03-12T20:48:16.348Z,11.62
2024-03-12T20:50:45.241Z,11.22
2024-03-12T20:53:11.793Z,11.65
2024-03-12T20:55:38.312Z,11.81
2024-03-12T20:58:04.799Z,11.98
2024-03-12T21:00:31.280Z,12.05
2024-03-12T21:02:57.812Z,11.22
2024-03-12T21:05:24.341Z,11.67
2024-03-12T21:07:50.790Z,11.44
2024-03-12T21:10:17.272Z,11.36
2024-03-12T21:12:44.078Z,10.71
2024-03-12T21:15:10.683Z,9.92
2024-03-12T21:17:37.179Z,9.70
2024-03-12T21:20:03.825Z,9.51
2024-03-12T21:22:30.270Z,9.32
2024-03-12T21:24:56.873Z,9.33
2024-03-12T21:27:23.329Z,9.47
2024-03-12T21:29:49.777Z,9.62
2024-03-12T21:32:16.290Z,9.73
2024-03-12T21:34:42.829Z,9.95
2024-03-12T21:37:09.336Z,9.79
2024-03-12T21:39:35.807Z,9.34
2024-03-12T21:42:02.255Z,9.07
2024-03-12T21:44:28.740Z,8.72
2024-03-12T21:46:57.449Z,9.09
2024-03-12T21:49:24.043Z,9.19
2024-03-12T21:51:50.744Z,9.03
2024-03-12T21:54:17.401Z,8.97
2024-03-12T21:56:44.035Z,9.17
2024-03-12T21:59:10.833Z,9.70
2024-03-12T22:01:37.643Z,9.56
2024-03-12T22:04:04.386Z,9.74
2024-03-12T22:06:30.988Z,9.80
2024-03-12T22:08:57.564Z,10.01
2024-03-12T22:11:26.157Z,10.16
2024-03-12T22:13:52.797Z,10.02
2024-03-12T22:16:19.571Z,10.11
2024-03-12T22:18:46.326Z,10.04
2024-03-12T22:21:12.966Z,9.95
2024-03-12T22:23:39.659Z,9.91
2024-03-12T22:26:06.242Z,10.15
2024-03-12T22:28:33.540Z,10.20
2024-03-12T22:31:00.153Z,10.23
2024-03-12T22:33:26.795Z,10.21
2024-03-12T22:35:53.402Z,10.39
2024-03-12T22:38:20.075Z,10.45
2024-03-12T22:40:46.712Z,10.35
2024-03-12T22:43:13.351Z,10.24
2024-03-12T22:45:39.983Z,10.15
2024-03-12T22:48:07.948Z,9.95
2024-03-12T22:50:34.564Z,10.13
2024-03-12T22:53:01.143Z,10.45
2024-03-12T22:55:27.672Z,10.69
2024-03-12T22:57:54.361Z,10.66
2024-03-12T23:00:20.917Z,10.71
2024-03-12T23:02:47.374Z,10.79
2024-03-12T23:05:13.794Z,10.89
2024-03-12T23:07:40.377Z,10.93
2024-03-12T23:10:06.852Z,10.99
2024-03-12T23:12:33.312Z,10.93
2024-03-12T23:14:59.757Z,10.75
2024-03-12T23:17:26.255Z,10.91
2024-03-12T23:19:55.168Z,10.70
2024-03-12T23:22:21.847Z,10.77
2024-03-12T23:24:48.348Z,10.74
2024-03-12T23:27:14.810Z,10.88
2024-03-12T23:29:41.301Z,10.75
2024-03-12T23:32:07.756Z,10.83
2024-03-12T23:34:34.215Z,10.54
2024-03-12T23:37:00.717Z,10.76
2024-03-12T23:39:27.166Z,10.66
2024-03-12T23:41:53.777Z,10.69
2024-03-12T23:44:20.323Z,10.70
2024-03-12T23:46:46.787Z,10.88
2024-03-12T23:49:13.211Z,10.41
2024-03-12T23:51:39.669Z,10.20
2024-03-12T23:54:06.203Z,9.96
2024-03-12T23:56:32.828Z,9.22
2024-03-12T23:58:59.503Z,9.50
